Time;durP1;ratioP1;P1;durP2;ratioP2;P2;SDS_P1;SDS_P2;PMS_P1;PMS_P2;Temp;Humidity;BMP_temperature;BMP_pressure;BME280_temperature;BME280_humidity;BME280_pressure;Samples;Min_cycle;Max_cycle;Signal;HPM_P1;HPM_P2
2023/02/25 00:00:16;;;;;;;17.92;8.18;;;2.10;99.90;;;;;;2067948;28;20209;-65
2023/02/25 00:01:25;;;;;;;19.58;7.30;;;2.10;99.90;;;;;;2053267;28;20184;-66
2023/02/25 00:02:28;;;;;;;22.00;7.25;;;2.10;99.90;;;;;;2061189;28;20759;-66
2023/02/25 00:03:35;;;;;;;20.00;7.72;;;2.20;99.90;;;;;;2067950;28;20231;-63
2023/02/25 00:04:41;;;;;;;19.27;8.00;;;2.20;99.90;;;;;;2064588;28;20614;-63
2023/02/25 00:05:46;;;;;;;18.67;7.53;;;2.20;99.90;;;;;;2070060;28;20855;-66
2023/02/25 00:06:52;;;;;;;17.65;8.00;;;2.20;99.90;;;;;;2070259;28;20184;-67
2023/02/25 00:07:58;;;;;;;16.08;7.18;;;2.20;99.90;;;;;;2068282;28;20189;-67
2023/02/25 00:09:05;;;;;;;16.15;7.43;;;2.20;99.90;;;;;;2061781;28;20186;-64
2023/02/25 00:10:11;;;;;;;16.48;6.97;;;2.20;99.90;;;;;;2061361;28;20828;-64
2023/02/25 00:11:18;;;;;;;15.73;7.57;;;2.30;99.90;;;;;;2069665;28;20258;-64
2023/02/25 00:12:23;;;;;;;16.23;6.80;;;2.30;99.90;;;;;;2069423;28;20189;-67
2023/02/25 00:13:29;;;;;;;15.75;7.45;;;2.30;99.90;;;;;;2069609;28;20178;-67
2023/02/25 00:14:34;;;;;;;18.40;7.88;;;2.30;99.90;;;;;;2060809;28;20197;-67
2023/02/25 00:15:40;;;;;;;12.52;7.45;;;2.30;99.90;;;;;;2067697;28;20739;-66
2023/02/25 00:16:48;;;;;;;17.58;7.50;;;2.30;99.90;;;;;;2069117;28;20192;-65
2023/02/25 00:17:53;;;;;;;19.67;7.57;;;2.20;99.90;;;;;;2068362;28;20198;-65
2023/02/25 00:18:58;;;;;;;19.15;7.35;;;2.30;99.90;;;;;;2057669;28;20268;-64
2023/02/25 00:20:08;;;;;;;17.48;8.13;;;2.30;99.90;;;;;;2068273;28;20213;-64
2023/02/25 00:21:16;;;;;;;15.55;8.30;;;2.40;99.90;;;;;;2069964;28;20831;-64
2023/02/25 00:22:20;;;;;;;18.73;8.88;;;2.30;99.90;;;;;;2064777;28;20207;-65
2023/02/25 00:23:25;;;;;;;21.30;8.27;;;2.30;99.90;;;;;;2068804;28;20714;-65
2023/02/25 00:24:31;;;;;;;22.25;8.65;;;2.40;99.90;;;;;;2068258;28;20847;-65
2023/02/25 00:25:36;;;;;;;20.38;8.73;;;2.30;99.90;;;;;;2072348;28;20660;-65
2023/02/25 00:26:43;;;;;;;19.88;9.25;;;2.40;99.90;;;;;;2068804;28;20195;-65
2023/02/25 00:27:47;;;;;;;20.73;9.35;;;2.40;99.90;;;;;;2070817;28;20665;-67
2023/02/25 00:28:53;;;;;;;19.10;8.65;;;2.40;99.90;;;;;;2071697;28;20188;-68
2023/02/25 00:29:59;;;;;;;18.08;8.25;;;2.50;99.90;;;;;;2065982;28;20219;-67
2023/02/25 00:31:13;;;;;;;17.75;8.68;;;2.50;99.90;;;;;;2061763;28;20275;-65
2023/02/25 00:32:16;;;;;;;24.27;8.90;;;2.50;99.90;;;;;;2068732;28;20192;-64
2023/02/25 00:33:21;;;;;;;21.60;9.32;;;2.50;99.90;;;;;;2069782;28;20194;-64
2023/02/25 00:34:27;;;;;;;16.65;8.57;;;2.50;99.90;;;;;;2070143;28;20658;-64
2023/02/25 00:35:33;;;;;;;18.73;7.72;;;2.50;99.90;;;;;;2069895;28;20189;-64
2023/02/25 00:36:39;;;;;;;16.75;7.90;;;2.50;99.90;;;;;;2065769;28;20281;-64
2023/02/25 00:37:44;;;;;;;19.23;8.90;;;2.50;99.90;;;;;;2068790;28;20215;-64
2023/02/25 00:38:53;;;;;;;17.02;8.20;;;2.50;99.90;;;;;;2068887;28;20201;-64
2023/02/25 00:39:56;;;;;;;20.45;8.38;;;2.40;99.90;;;;;;2065304;28;20208;-64
2023/02/25 00:41:10;;;;;;;20.88;8.20;;;2.40;99.90;;;;;;2068114;28;20188;-65
2023/02/25 00:42:18;;;;;;;17.65;8.55;;;2.40;99.90;;;;;;2069191;28;20182;-65
2023/02/25 00:43:21;;;;;;;21.38;9.05;;;2.40;99.90;;;;;;2065923;28;20765;-65
2023/02/25 00:44:27;;;;;;;21.23;8.50;;;2.50;99.90;;;;;;2068087;28;20188;-69
2023/02/25 00:45:33;;;;;;;21.80;8.57;;;2.50;99.90;;;;;;2068801;28;20239;-65
2023/02/25 00:46:38;;;;;;;17.92;8.45;;;2.50;99.90;;;;;;2064327;28;20189;-65
2023/02/25 00:47:44;;;;;;;19.58;8.68;;;2.50;99.90;;;;;;2069087;28;20188;-65
2023/02/25 00:48:50;;;;;;;19.83;8.68;;;2.50;99.90;;;;;;2062600;28;20244;-65
2023/02/25 00:49:55;;;;;;;15.45;7.97;;;2.50;99.90;;;;;;2069163;28;20211;-65
2023/02/25 00:51:20;;;;;;;13.55;7.05;;;2.50;99.90;;;;;;2069931;28;20188;-64
2023/02/25 00:52:26;;;;;;;14.88;6.15;;;2.40;99.90;;;;;;2066794;28;20191;-65
2023/02/25 00:53:32;;;;;;;14.88;6.43;;;2.40;99.90;;;;;;2069637;28;20184;-64
2023/02/25 00:54:38;;;;;;;14.65;6.57;;;2.30;99.90;;;;;;2069638;28;20648;-65
2023/02/25 00:55:44;;;;;;;12.00;5.70;;;2.30;99.90;;;;;;2065455;28;20193;-65
2023/02/25 00:56:49;;;;;;;13.43;7.20;;;2.30;99.90;;;;;;2069158;28;20219;-65
2023/02/25 00:57:55;;;;;;;15.57;6.32;;;2.30;99.90;;;;;;2069413;28;20207;-64
2023/02/25 00:59:01;;;;;;;9.50;5.63;;;2.30;99.90;;;;;;2065822;28;20174;-65
2023/02/25 01:00:14;;;;;;;12.68;6.57;;;2.20;99.90;;;;;;2069429;28;20203;-65
2023/02/25 01:01:28;;;;;;;15.10;6.20;;;2.20;99.90;;;;;;2068787;28;20187;-65
2023/02/25 01:02:34;;;;;;;13.52;6.43;;;2.20;99.90;;;;;;2066784;28;20303;-65
2023/02/25 01:03:39;;;;;;;13.50;6.32;;;2.20;99.90;;;;;;2069688;28;20240;-65
2023/02/25 01:04:45;;;;;;;12.57;5.63;;;2.20;99.90;;;;;;2065921;28;20181;-65
2023/02/25 01:05:51;;;;;;;16.15;6.40;;;2.20;99.90;;;;;;2069518;28;20181;-65
2023/02/25 01:06:57;;;;;;;12.27;6.20;;;2.10;99.90;;;;;;2069717;28;20187;-65
2023/02/25 01:08:02;;;;;;;12.75;6.45;;;2.10;99.90;;;;;;2069322;28;20177;-65
2023/02/25 01:09:12;;;;;;;14.13;7.13;;;2.10;99.90;;;;;;2069852;28;20822;-65
2023/02/25 01:10:18;;;;;;;13.45;7.38;;;2.10;99.90;;;;;;2069200;28;20226;-65
2023/02/25 01:11:28;;;;;;;13.65;7.47;;;2.10;99.90;;;;;;2069244;28;20211;-65
2023/02/25 01:12:34;;;;;;;14.15;7.35;;;2.10;99.90;;;;;;2068970;28;20181;-65
2023/02/25 01:13:39;;;;;;;17.80;8.25;;;2.10;99.90;;;;;;2068893;28;20180;-65
2023/02/25 01:14:45;;;;;;;17.52;8.77;;;2.00;99.90;;;;;;2065632;28;20189;-65
2023/02/25 01:15:51;;;;;;;20.75;8.05;;;2.00;99.90;;;;;;2068750;28;20291;-65
2023/02/25 01:17:00;;;;;;;16.85;8.00;;;2.00;99.90;;;;;;2068757;28;20670;-65
2023/02/25 01:18:05;;;;;;;18.48;7.90;;;2.00;99.90;;;;;;2065561;28;20204;-65
2023/02/25 01:19:15;;;;;;;21.60;9.60;;;2.10;99.90;;;;;;2072912;28;20724;-65
2023/02/25 01:20:22;;;;;;;22.50;8.98;;;2.10;99.90;;;;;;2069750;28;20235;-65
2023/02/25 01:21:35;;;;;;;18.27;9.27;;;2.10;99.90;;;;;;2065338;28;20193;-65
2023/02/25 01:22:41;;;;;;;18.48;10.00;;;2.10;99.90;;;;;;2060709;28;20225;-65
2023/02/25 01:23:48;;;;;;;16.00;9.27;;;2.20;99.90;;;;;;2068916;28;20176;-66
2023/02/25 01:24:55;;;;;;;22.30;9.65;;;2.30;99.90;;;;;;2069904;28;20662;-65
2023/02/25 01:26:03;;;;;;;19.48;8.82;;;2.30;99.90;;;;;;2069981;28;20242;-65
2023/02/25 01:27:04;;;;;;;20.35;9.05;;;2.30;99.90;;;;;;2061013;28;20205;-66
2023/02/25 01:28:09;;;;;;;14.38;8.38;;;2.30;99.90;;;;;;2057935;28;20188;-67
2023/02/25 01:29:28;;;;;;;16.50;8.65;;;2.20;99.90;;;;;;2069231;28;20232;-65
2023/02/25 01:30:37;;;;;;;18.30;9.52;;;2.20;99.90;;;;;;2066479;28;20189;-65
2023/02/25 01:31:43;;;;;;;15.48;9.43;;;2.10;99.90;;;;;;2069579;28;20264;-66
2023/02/25 01:32:49;;;;;;;16.48;8.18;;;2.10;99.90;;;;;;2069426;28;20956;-65
2023/02/25 01:34:00;;;;;;;15.77;8.35;;;2.10;99.90;;;;;;2066073;28;20200;-65
2023/02/25 01:35:05;;;;;;;23.45;9.13;;;2.10;99.90;;;;;;2068792;28;20746;-67
2023/02/25 01:36:10;;;;;;;18.85;8.40;;;2.10;99.90;;;;;;2068838;28;20193;-65
2023/02/25 01:37:16;;;;;;;19.70;9.05;;;2.10;99.90;;;;;;2066277;28;20203;-66
2023/02/25 01:38:21;;;;;;;19.13;9.85;;;2.00;99.90;;;;;;2068922;28;20719;-65
2023/02/25 01:39:28;;;;;;;19.33;8.93;;;1.90;99.90;;;;;;2069531;28;20213;-65
2023/02/25 01:40:33;;;;;;;17.42;8.90;;;1.80;99.90;;;;;;2065367;28;20191;-65
2023/02/25 01:41:39;;;;;;;17.75;9.55;;;1.90;99.90;;;;;;2065920;28;20640;-65
2023/02/25 01:42:45;;;;;;;22.77;9.50;;;1.90;99.90;;;;;;2072303;28;20214;-66
2023/02/25 01:44:15;;;;;;;20.05;9.70;;;1.90;99.90;;;;;;2069659;28;20252;-65
2023/02/25 01:45:26;;;;;;;16.58;9.00;;;1.90;99.90;;;;;;2066655;28;20181;-65
2023/02/25 01:46:32;;;;;;;19.02;9.13;;;1.90;99.90;;;;;;2068909;28;20196;-66
2023/02/25 01:47:39;;;;;;;19.65;9.10;;;1.90;99.90;;;;;;2068827;28;20235;-65
2023/02/25 01:48:45;;;;;;;21.42;9.07;;;1.90;99.90;;;;;;2068858;28;20219;-65
2023/02/25 01:49:51;;;;;;;14.98;8.65;;;1.90;99.90;;;;;;2068739;28;20365;-65
2023/02/25 01:51:05;;;;;;;17.95;9.23;;;2.00;99.90;;;;;;2069398;28;20658;-65
2023/02/25 01:52:20;;;;;;;21.60;9.48;;;1.90;99.90;;;;;;2066710;28;20208;-65
2023/02/25 01:53:39;;;;;;;16.33;8.32;;;1.90;99.90;;;;;;2065127;28;20189;-65
2023/02/25 01:54:48;;;;;;;19.33;9.98;;;1.90;99.90;;;;;;2063718;28;20220;-66
2023/02/25 01:55:56;;;;;;;20.02;10.57;;;1.90;99.90;;;;;;2062367;28;20661;-65
2023/02/25 01:57:06;;;;;;;25.60;10.90;;;1.80;99.90;;;;;;2068874;28;20180;-65
2023/02/25 01:58:11;;;;;;;22.13;10.35;;;1.80;99.90;;;;;;2069081;28;20193;-65
2023/02/25 01:59:20;;;;;;;21.33;9.70;;;1.80;99.90;;;;;;2069091;28;20683;-65
2023/02/25 02:00:29;;;;;;;20.83;9.45;;;1.90;99.90;;;;;;2062692;28;20262;-65
2023/02/25 02:01:38;;;;;;;18.33;10.10;;;1.90;99.90;;;;;;2059335;28;20188;-65
2023/02/25 02:02:48;;;;;;;20.67;10.00;;;1.90;99.90;;;;;;2068794;28;20277;-65
2023/02/25 02:03:54;;;;;;;20.63;9.15;;;1.90;99.90;;;;;;2064757;28;20199;-65
2023/02/25 02:05:00;;;;;;;16.45;8.73;;;1.90;99.90;;;;;;2068502;28;20186;-65
2023/02/25 02:06:30;;;;;;;15.32;8.65;;;1.90;99.90;;;;;;2069278;28;20260;-65
2023/02/25 02:07:36;;;;;;;18.38;9.50;;;1.90;99.90;;;;;;2059465;28;20221;-65
2023/02/25 02:08:44;;;;;;;19.45;8.55;;;2.00;99.90;;;;;;2058213;28;20195;-65
2023/02/25 02:09:56;;;;;;;17.77;9.27;;;1.90;99.90;;;;;;2068591;28;20233;-65
2023/02/25 02:11:02;;;;;;;23.17;10.27;;;1.90;99.90;;;;;;2062653;28;20561;-67
2023/02/25 02:12:06;;;;;;;18.38;9.05;;;1.90;99.90;;;;;;2068775;28;20228;-66
2023/02/25 02:13:09;;;;;;;19.95;9.70;;;1.90;99.90;;;;;;2068634;28;20209;-66
2023/02/25 02:14:20;;;;;;;19.13;9.85;;;1.90;99.90;;;;;;2069682;28;20179;-65
2023/02/25 02:15:26;;;;;;;19.40;8.98;;;1.90;99.90;;;;;;2065650;28;20320;-65
2023/02/25 02:17:17;;;;;;;20.80;9.32;;;1.90;99.90;;;;;;2068575;28;20201;-65
2023/02/25 02:18:26;;;;;;;15.73;9.05;;;1.80;99.90;;;;;;2065282;28;20179;-65
2023/02/25 02:19:46;;;;;;;20.20;9.75;;;1.80;99.90;;;;;;2061492;28;20199;-66
2023/02/25 02:21:19;;;;;;;21.02;9.43;;;1.80;99.90;;;;;;2065318;28;20689;-66
2023/02/25 02:23:04;;;;;;;21.00;9.38;;;1.70;99.90;;;;;;2067798;28;20295;-65
2023/02/25 02:24:51;;;;;;;17.42;9.30;;;1.70;99.90;;;;;;2066770;28;20563;-64
2023/02/25 02:26:41;;;;;;;21.63;8.82;;;1.70;99.90;;;;;;2065330;28;20181;-65
2023/02/25 02:28:11;;;;;;;20.17;8.68;;;1.70;99.90;;;;;;2063025;28;20239;-65
2023/02/25 02:30:34;;;;;;;15.95;8.73;;;1.60;99.90;;;;;;2065429;28;20192;-65
2023/02/25 02:31:58;;;;;;;17.33;9.48;;;1.60;99.90;;;;;;2059553;28;20701;-66
2023/02/25 02:33:41;;;;;;;23.17;10.48;;;1.60;99.90;;;;;;2072814;28;20231;-66
2023/02/25 02:35:22;;;;;;;22.92;10.45;;;1.60;99.90;;;;;;2075515;28;20260;-66
2023/02/25 02:37:21;;;;;;;17.73;9.13;;;1.50;99.90;;;;;;2063710;28;20205;-66
2023/02/25 02:39:00;;;;;;;18.67;9.50;;;1.60;99.90;;;;;;2068229;28;20228;-66
2023/02/25 02:40:29;;;;;;;19.33;9.55;;;1.60;99.90;;;;;;2065184;28;20285;-65
2023/02/25 02:41:57;;;;;;;20.38;10.07;;;1.60;99.90;;;;;;2064800;28;20707;-66
2023/02/25 02:43:36;;;;;;;18.48;8.98;;;1.60;99.90;;;;;;2064735;28;20261;-66
2023/02/25 02:44:55;;;;;;;22.65;10.23;;;1.60;99.90;;;;;;2066361;28;20640;-65
2023/02/25 02:46:21;;;;;;;23.05;10.85;;;1.70;99.90;;;;;;2065890;28;20776;-66
2023/02/25 02:47:58;;;;;;;24.17;10.02;;;1.70;99.90;;;;;;2066091;28;20684;-66
2023/02/25 02:49:11;;;;;;;16.45;8.70;;;1.70;99.90;;;;;;2067049;28;20246;-66
2023/02/25 02:50:33;;;;;;;21.08;10.57;;;1.70;99.90;;;;;;2064610;28;20212;-66
2023/02/25 02:51:50;;;;;;;14.40;8.10;;;1.60;99.90;;;;;;2064681;28;20238;-66
2023/02/25 02:52:59;;;;;;;14.15;8.50;;;1.60;99.90;;;;;;2068134;28;20194;-66
2023/02/25 02:54:05;;;;;;;19.10;8.30;;;1.50;99.90;;;;;;2064607;28;20194;-66
2023/02/25 02:55:21;;;;;;;17.95;8.02;;;1.50;99.90;;;;;;2060723;28;20218;-66
2023/02/25 02:56:28;;;;;;;21.67;9.45;;;1.50;99.90;;;;;;2059305;28;20228;-66
2023/02/25 02:57:40;;;;;;;18.08;8.52;;;1.60;99.90;;;;;;2068373;28;20217;-66
2023/02/25 02:58:51;;;;;;;17.23;8.98;;;1.60;99.90;;;;;;2064095;28;20189;-66
2023/02/25 03:00:16;;;;;;;19.88;9.07;;;1.60;99.90;;;;;;2068151;28;20296;-66
2023/02/25 03:01:28;;;;;;;22.48;10.27;;;1.70;99.90;;;;;;2065999;28;20889;-66
2023/02/25 03:02:37;;;;;;;22.75;9.02;;;1.70;99.90;;;;;;2063661;28;20775;-66
2023/02/25 03:03:53;;;;;;;17.02;8.75;;;1.70;99.90;;;;;;2068674;28;20212;-66
2023/02/25 03:05:05;;;;;;;17.92;8.38;;;1.80;99.90;;;;;;2065122;28;20995;-67
2023/02/25 03:06:23;;;;;;;19.50;9.30;;;1.70;99.90;;;;;;2068149;28;20201;-66
2023/02/25 03:07:33;;;;;;;20.13;9.65;;;1.80;99.90;;;;;;2060121;28;20172;-66
2023/02/25 03:08:44;;;;;;;18.65;9.25;;;1.80;99.90;;;;;;2062110;28;20239;-66
2023/02/25 03:09:54;;;;;;;23.35;10.40;;;1.80;99.90;;;;;;2061918;28;20190;-66
2023/02/25 03:11:00;;;;;;;20.73;10.20;;;1.70;99.90;;;;;;2062123;28;20191;-66
2023/02/25 03:12:05;;;;;;;19.98;10.43;;;1.70;99.90;;;;;;2061101;28;20185;-65
2023/02/25 03:13:10;;;;;;;20.42;10.15;;;1.60;99.90;;;;;;2061312;28;20680;-67
2023/02/25 03:14:15;;;;;;;20.80;10.40;;;1.60;99.90;;;;;;2053376;28;20222;-66
2023/02/25 03:15:23;;;;;;;20.85;11.13;;;1.50;99.90;;;;;;2061498;28;20196;-65
2023/02/25 03:16:57;;;;;;;24.35;11.80;;;1.50;99.90;;;;;;2064986;28;20184;-65
2023/02/25 03:18:15;;;;;;;22.42;9.13;;;1.60;99.90;;;;;;2067108;28;20684;-66
2023/02/25 03:19:50;;;;;;;20.02;9.75;;;1.60;99.90;;;;;;2067958;28;20252;-66
2023/02/25 03:20:55;;;;;;;22.27;10.38;;;1.60;99.90;;;;;;2063623;28;20196;-66
2023/02/25 03:22:16;;;;;;;18.00;10.05;;;1.60;99.90;;;;;;2061125;28;20196;-66
2023/02/25 03:23:28;;;;;;;17.70;9.45;;;1.60;99.90;;;;;;2066681;28;20265;-64
2023/02/25 03:25:08;;;;;;;16.63;8.75;;;1.70;99.90;;;;;;2064612;28;20181;-64
2023/02/25 03:26:26;;;;;;;19.35;8.90;;;1.60;99.90;;;;;;2068369;28;20731;-65
2023/02/25 03:27:42;;;;;;;18.85;10.13;;;1.60;99.90;;;;;;2066005;28;20182;-65
2023/02/25 03:28:45;;;;;;;16.95;8.45;;;1.60;99.90;;;;;;2067993;28;20237;-65
2023/02/25 03:29:49;;;;;;;19.73;9.93;;;1.50;99.90;;;;;;2064380;28;20554;-65
2023/02/25 03:31:32;;;;;;;20.40;10.48;;;1.50;99.90;;;;;;2068064;28;20197;-65
2023/02/25 03:32:50;;;;;;;20.95;9.40;;;1.60;99.90;;;;;;2066284;28;20182;-65
2023/02/25 03:34:15;;;;;;;15.65;9.10;;;1.60;99.90;;;;;;2068425;28;20271;-65
2023/02/25 03:35:22;;;;;;;15.35;8.60;;;1.60;99.90;;;;;;2066928;28;20230;-65
2023/02/25 03:36:53;;;;;;;19.20;9.52;;;1.70;99.90;;;;;;2068245;28;20255;-65
2023/02/25 03:38:10;;;;;;;19.85;9.63;;;1.70;99.90;;;;;;2059657;28;20174;-65
2023/02/25 03:39:25;;;;;;;22.00;9.68;;;1.80;99.90;;;;;;2062865;28;20184;-64
2023/02/25 03:40:32;;;;;;;16.90;9.30;;;1.80;99.90;;;;;;2073834;28;20240;-64
2023/02/25 03:41:43;;;;;;;23.15;8.95;;;1.90;99.90;;;;;;2068919;28;20210;-64
2023/02/25 03:43:15;;;;;;;18.10;8.95;;;1.90;99.90;;;;;;2065351;28;20211;-64
2023/02/25 03:44:33;;;;;;;16.17;8.40;;;1.90;99.90;;;;;;2070613;28;20201;-64
2023/02/25 03:45:40;;;;;;;15.05;8.43;;;1.80;99.90;;;;;;2065068;28;20655;-64
2023/02/25 03:46:46;;;;;;;17.25;9.00;;;1.90;99.90;;;;;;2067752;28;20198;-64
2023/02/25 03:47:54;;;;;;;16.38;8.90;;;1.90;99.90;;;;;;2068912;28;20250;-64
2023/02/25 03:49:03;;;;;;;20.98;9.85;;;1.80;99.90;;;;;;2067685;28;20573;-64
2023/02/25 03:50:13;;;;;;;17.55;8.65;;;1.80;99.90;;;;;;2067751;28;20223;-64
2023/02/25 03:51:26;;;;;;;14.82;7.65;;;1.90;99.90;;;;;;2067679;28;20870;-64
2023/02/25 03:52:32;;;;;;;16.15;8.05;;;1.80;99.90;;;;;;2062088;28;20224;-64
2023/02/25 03:53:37;;;;;;;19.33;8.95;;;1.70;99.90;;;;;;2041970;28;20244;-64
2023/02/25 03:54:50;;;;;;;15.07;7.40;;;1.60;99.90;;;;;;2057453;28;20186;-64
2023/02/25 03:55:58;;;;;;;17.58;8.40;;;1.60;99.90;;;;;;2068018;28;20724;-64
2023/02/25 03:57:04;;;;;;;17.13;7.75;;;1.60;99.90;;;;;;2058764;28;20189;-64
2023/02/25 03:58:09;;;;;;;16.27;7.65;;;1.50;99.90;;;;;;2057897;28;20183;-64
2023/02/25 03:59:16;;;;;;;12.43;7.40;;;1.40;99.90;;;;;;2070880;28;20188;-64
2023/02/25 04:00:32;;;;;;;16.52;8.20;;;1.40;99.90;;;;;;2065299;28;20279;-64
2023/02/25 04:01:40;;;;;;;19.08;8.80;;;1.50;99.90;;;;;;2069974;28;20210;-64
2023/02/25 04:02:46;;;;;;;17.00;8.52;;;1.60;99.90;;;;;;2066117;28;20273;-64
2023/02/25 04:03:52;;;;;;;20.25;8.73;;;1.60;99.90;;;;;;2069585;28;20170;-64
2023/02/25 04:04:58;;;;;;;19.58;8.50;;;1.70;99.90;;;;;;2069297;28;20190;-65
2023/02/25 04:06:04;;;;;;;17.52;9.23;;;1.80;99.90;;;;;;2065981;28;20174;-64
2023/02/25 04:07:09;;;;;;;18.35;8.60;;;1.80;99.90;;;;;;2069872;28;20682;-64
2023/02/25 04:08:15;;;;;;;15.52;8.68;;;1.80;99.90;;;;;;2069238;28;20207;-64
2023/02/25 04:09:21;;;;;;;17.70;9.43;;;1.90;99.90;;;;;;2069742;28;20218;-64
2023/02/25 04:10:27;;;;;;;17.58;9.07;;;1.90;99.90;;;;;;2070267;28;20586;-64
2023/02/25 04:11:32;;;;;;;16.88;8.90;;;2.00;99.90;;;;;;2070339;28;20183;-64
2023/02/25 04:12:39;;;;;;;16.48;8.75;;;2.00;99.90;;;;;;2070577;28;20175;-64
2023/02/25 04:13:44;;;;;;;17.45;8.70;;;1.90;99.90;;;;;;2070310;28;20204;-64
2023/02/25 04:14:49;;;;;;;19.33;9.25;;;2.10;99.90;;;;;;2068295;28;20176;-64
2023/02/25 04:15:55;;;;;;;16.77;9.52;;;2.10;99.90;;;;;;2070913;28;20674;-64
2023/02/25 04:17:00;;;;;;;19.13;9.27;;;2.10;99.90;;;;;;2067201;28;20218;-64
2023/02/25 04:18:04;;;;;;;21.52;10.00;;;2.10;99.90;;;;;;2069785;28;20185;-64
2023/02/25 04:19:09;;;;;;;18.98;8.93;;;2.10;99.90;;;;;;2069820;28;20242;-64
2023/02/25 04:20:16;;;;;;;20.38;9.88;;;2.10;99.90;;;;;;2069214;28;20211;-64
2023/02/25 04:21:38;;;;;;;20.00;9.15;;;2.10;99.90;;;;;;2059244;28;20210;-64
2023/02/25 04:22:39;;;;;;;17.27;8.40;;;2.10;99.90;;;;;;2063949;28;20195;-64
2023/02/25 04:23:44;;;;;;;20.92;9.20;;;2.00;99.90;;;;;;2063293;28;20646;-64
2023/02/25 04:24:50;;;;;;;22.63;8.75;;;1.90;99.90;;;;;;2072332;28;20209;-64
2023/02/25 04:25:55;;;;;;;17.77;9.38;;;1.90;99.90;;;;;;2069802;28;20249;-64
2023/02/25 04:27:01;;;;;;;14.98;7.95;;;1.80;99.90;;;;;;2070259;28;20183;-64
2023/02/25 04:28:03;;;;;;;17.90;9.55;;;1.80;99.90;;;;;;2069140;28;20275;-64
2023/02/25 04:29:05;;;;;;;18.58;9.13;;;1.70;99.90;;;;;;2069442;28;20222;-64
2023/02/25 04:30:10;;;;;;;18.05;9.52;;;1.70;99.90;;;;;;2070155;28;20198;-64
2023/02/25 04:31:15;;;;;;;21.63;9.20;;;1.70;99.90;;;;;;2070230;28;20187;-64
2023/02/25 04:32:21;;;;;;;17.55;9.75;;;1.60;99.90;;;;;;2066738;28;20193;-64
2023/02/25 04:33:26;;;;;;;17.65;9.32;;;1.70;99.90;;;;;;2069284;28;20192;-64
2023/02/25 04:34:31;;;;;;;14.18;8.50;;;1.70;99.90;;;;;;2069384;28;20696;-64
2023/02/25 04:35:38;;;;;;;14.90;8.57;;;1.60;99.90;;;;;;2065734;28;20290;-64
2023/02/25 04:36:43;;;;;;;18.15;8.95;;;1.50;99.90;;;;;;2069602;28;20227;-64
2023/02/25 04:37:48;;;;;;;23.70;9.23;;;1.60;99.90;;;;;;2069768;28;20619;-64
2023/02/25 04:38:55;;;;;;;15.93;8.65;;;1.60;99.90;;;;;;2069803;28;20287;-65
2023/02/25 04:40:00;;;;;;;18.10;8.18;;;1.60;99.90;;;;;;2070058;28;20210;-65
2023/02/25 04:41:04;;;;;;;14.77;8.63;;;1.50;99.90;;;;;;2070164;28;20187;-65
2023/02/25 04:42:09;;;;;;;18.95;8.48;;;1.50;99.90;;;;;;2069981;28;20191;-65
2023/02/25 04:43:15;;;;;;;14.13;8.40;;;1.50;99.90;;;;;;2066188;28;20252;-64
2023/02/25 04:44:20;;;;;;;15.77;7.90;;;1.50;99.90;;;;;;2069775;28;20201;-65
2023/02/25 04:45:26;;;;;;;19.20;9.30;;;1.50;99.90;;;;;;2069094;28;20193;-65
2023/02/25 04:46:36;;;;;;;21.02;9.02;;;1.50;99.90;;;;;;2069250;28;20200;-65
2023/02/25 04:47:38;;;;;;;22.13;8.90;;;1.50;99.90;;;;;;2066030;28;20212;-65
2023/02/25 04:48:43;;;;;;;18.75;9.95;;;1.60;99.90;;;;;;2069062;28;20189;-65
2023/02/25 04:49:48;;;;;;;21.48;10.48;;;1.60;99.90;;;;;;2069138;28;20277;-65
2023/02/25 04:50:54;;;;;;;13.68;7.85;;;1.70;99.90;;;;;;2065583;28;20310;-65
2023/02/25 04:52:00;;;;;;;16.80;8.55;;;1.70;99.90;;;;;;2069814;28;20208;-64
2023/02/25 04:53:04;;;;;;;15.13;7.70;;;1.60;99.90;;;;;;2069694;28;20196;-64
2023/02/25 04:54:10;;;;;;;17.70;8.02;;;1.50;99.90;;;;;;2069160;28;20174;-64
2023/02/25 04:55:15;;;;;;;15.95;7.93;;;1.50;99.90;;;;;;2058984;28;20679;-64
2023/02/25 04:56:21;;;;;;;18.85;8.88;;;1.50;99.90;;;;;;2066515;28;20760;-65
2023/02/25 04:57:26;;;;;;;16.63;8.98;;;1.50;99.90;;;;;;2072775;28;20265;-65
2023/02/25 04:58:33;;;;;;;16.48;8.48;;;1.60;99.90;;;;;;2065251;28;20277;-65
2023/02/25 04:59:38;;;;;;;14.80;8.25;;;1.60;99.90;;;;;;2068951;28;20184;-65
2023/02/25 05:00:48;;;;;;;14.45;8.43;;;1.70;99.90;;;;;;2069639;28;20273;-65
2023/02/25 05:01:53;;;;;;;20.92;8.57;;;1.70;99.90;;;;;;2066327;28;20191;-65
2023/02/25 05:02:58;;;;;;;13.93;7.38;;;1.70;99.90;;;;;;2069577;28;20828;-65
2023/02/25 05:04:04;;;;;;;15.30;7.80;;;1.80;99.90;;;;;;2069849;28;20182;-65
2023/02/25 05:05:09;;;;;;;16.50;7.95;;;1.70;99.90;;;;;;2069654;28;20196;-65
2023/02/25 05:06:15;;;;;;;15.18;8.10;;;1.70;99.90;;;;;;2069991;28;20271;-64
2023/02/25 05:07:21;;;;;;;16.83;8.13;;;1.70;99.90;;;;;;2069855;28;20193;-65
2023/02/25 05:08:28;;;;;;;19.73;8.20;;;1.90;99.90;;;;;;2069871;28;20192;-65
2023/02/25 05:09:33;;;;;;;15.80;7.90;;;2.00;99.90;;;;;;2069031;28;20194;-65
2023/02/25 05:10:38;;;;;;;20.25;8.65;;;2.10;99.90;;;;;;2068384;28;20244;-65
2023/02/25 05:11:44;;;;;;;20.55;8.07;;;2.00;99.90;;;;;;2067927;28;20206;-65
2023/02/25 05:12:49;;;;;;;17.00;7.95;;;2.00;99.90;;;;;;2065395;28;20235;-65
2023/02/25 05:13:56;;;;;;;17.60;8.30;;;2.00;99.90;;;;;;2069403;28;20892;-65
2023/02/25 05:15:04;;;;;;;18.45;9.10;;;1.90;99.90;;;;;;2069478;28;20197;-65
2023/02/25 05:16:15;;;;;;;19.05;8.25;;;1.90;99.90;;;;;;2065690;28;20651;-65
2023/02/25 05:17:16;;;;;;;17.80;8.68;;;1.90;99.90;;;;;;2069417;28;20649;-65
2023/02/25 05:18:22;;;;;;;21.10;9.02;;;2.00;99.90;;;;;;2069334;28;20200;-65
2023/02/25 05:19:28;;;;;;;21.02;8.65;;;2.10;99.90;;;;;;2070372;28;20278;-64
2023/02/25 05:20:33;;;;;;;16.02;8.32;;;2.10;99.90;;;;;;2070599;28;20258;-65
2023/02/25 05:21:39;;;;;;;13.25;7.15;;;2.00;99.90;;;;;;2069619;28;20189;-64
2023/02/25 05:22:44;;;;;;;17.30;8.73;;;2.00;99.90;;;;;;2069587;28;20178;-64
2023/02/25 05:23:52;;;;;;;21.15;9.07;;;1.90;99.90;;;;;;2065107;28;20227;-65
2023/02/25 05:24:55;;;;;;;16.77;8.60;;;1.90;99.90;;;;;;2066553;28;20175;-65
2023/02/25 05:26:01;;;;;;;15.75;8.43;;;1.80;99.90;;;;;;2070027;28;20249;-65
2023/02/25 05:27:04;;;;;;;17.95;8.25;;;1.80;99.90;;;;;;2069574;28;20223;-65
2023/02/25 05:28:10;;;;;;;17.55;8.48;;;1.70;99.90;;;;;;2065776;28;20173;-65
2023/02/25 05:29:16;;;;;;;13.73;7.70;;;1.80;99.90;;;;;;2069288;28;20181;-65
2023/02/25 05:30:21;;;;;;;20.77;7.97;;;1.60;99.90;;;;;;2069170;28;20207;-65
2023/02/25 05:31:27;;;;;;;15.32;7.70;;;1.60;99.90;;;;;;2065661;28;20186;-65
2023/02/25 05:32:32;;;;;;;14.45;7.70;;;1.60;99.90;;;;;;2069152;28;20196;-65
2023/02/25 05:33:39;;;;;;;15.25;7.63;;;1.50;99.90;;;;;;2069231;28;20199;-65
2023/02/25 05:34:44;;;;;;;16.13;8.15;;;1.40;99.90;;;;;;2069520;28;20187;-65
2023/02/25 05:35:50;;;;;;;12.15;7.45;;;1.50;99.90;;;;;;2068649;28;20219;-65
2023/02/25 05:36:55;;;;;;;19.38;8.48;;;1.50;99.90;;;;;;2069122;28;20197;-65
2023/02/25 05:38:01;;;;;;;17.98;9.35;;;1.50;99.90;;;;;;2068826;28;20260;-65
2023/02/25 05:39:05;;;;;;;16.40;8.40;;;1.60;99.90;;;;;;2065417;28;20188;-65
2023/02/25 05:40:12;;;;;;;15.98;8.15;;;1.70;99.90;;;;;;2069168;28;20400;-64
2023/02/25 05:41:18;;;;;;;15.25;8.70;;;1.80;99.90;;;;;;2069200;28;20192;-65
2023/02/25 05:42:23;;;;;;;18.88;8.77;;;1.90;99.90;;;;;;2065235;28;20176;-65
2023/02/25 05:43:29;;;;;;;19.92;8.13;;;1.90;99.90;;;;;;2068984;28;20237;-65
2023/02/25 05:44:34;;;;;;;12.85;7.25;;;1.90;99.90;;;;;;2069092;28;20668;-65
2023/02/25 05:45:40;;;;;;;13.70;7.78;;;1.90;99.90;;;;;;2069050;28;20190;-65
2023/02/25 05:46:45;;;;;;;13.70;6.80;;;1.80;99.90;;;;;;2064625;28;20179;-65
2023/02/25 05:47:51;;;;;;;17.45;7.55;;;1.80;99.90;;;;;;2069205;28;20183;-65
2023/02/25 05:48:57;;;;;;;17.95;7.60;;;1.80;99.90;;;;;;2069354;28;20183;-65
2023/02/25 05:50:03;;;;;;;16.92;8.05;;;1.80;99.90;;;;;;2065376;28;20203;-65
2023/02/25 05:51:10;;;;;;;15.60;6.75;;;1.70;99.90;;;;;;2068939;28;20184;-65
2023/02/25 05:52:14;;;;;;;14.52;7.53;;;1.60;99.90;;;;;;2068435;28;20285;-65
2023/02/25 05:53:17;;;;;;;13.83;6.97;;;1.50;99.90;;;;;;2068443;28;20676;-65
2023/02/25 05:54:22;;;;;;;12.35;6.80;;;1.40;99.90;;;;;;2065723;28;20264;-65
2023/02/25 05:55:28;;;;;;;9.65;5.60;;;1.50;99.90;;;;;;2068859;28;20186;-65
2023/02/25 05:56:33;;;;;;;12.35;6.97;;;1.50;99.90;;;;;;2069009;28;20222;-65
2023/02/25 05:57:39;;;;;;;10.32;5.32;;;1.40;99.90;;;;;;2069066;28;20659;-65
2023/02/25 05:58:47;;;;;;;11.25;6.32;;;1.30;99.90;;;;;;2063872;28;20195;-65
2023/02/25 05:59:52;;;;;;;15.20;6.65;;;1.30;99.90;;;;;;2066965;28;20620;-65
2023/02/25 06:00:58;;;;;;;13.07;6.30;;;1.40;99.90;;;;;;2069115;28;20243;-65
2023/02/25 06:02:03;;;;;;;10.93;6.25;;;1.40;99.90;;;;;;2068182;28;20187;-65
2023/02/25 06:03:05;;;;;;;13.13;6.57;;;1.30;99.90;;;;;;2068182;28;20229;-65